Decoded Metar for YGTH ( in ) (IATA:) | Meteo·Mobile Aviation Weather
aviador You're here:

YGTH Decoded Metar

in
Report Time2019-07-21 17:00:00
UTC Time2019-07-21 18:08:46
Flight Rules Old
WindCalm
Visibility9999 m
Phenomena:N/A
Clouds:N/A
Expected CloudBase > 400 ft AGL from Temp-Dew spread
CeilingNone
Temp04°C
Dew Point03°C (93% RH)
AAT2.5°C
QNH1015 hPa
Raw Report
METAR YGTH 211700Z AUTO 00000KT 9999 // NCD 04/03 Q1015=

Extra information for YGTH:More info

Social comments